Pagrindinis puslapis
METAR-TAF:

METAR-TAF

Oro uostai :

Old Crow, Jukonas, Kanada

platuma: 67-34N, ilguma: 139-49W, Aukštis: 251 m

Dabartinis oras

Ataskaita buvo paskelbta 8 valandos ir 41 minutes, ne 01:00 UTC
Vėjas 8 kt iš Šiaurės Rytų, svyruoja nuo Šiaurės ir Rytų/Pietryčių
Temperatūra 16°C
Drėgmė 25%
Slėgis 1014 hPa
Matomumas: 56.3 km
Mažai debesys ne aukštis 3000 ft

METAR: CYOC 050100Z 05008KT 350V110 35SM FEW030 16/M04 A2995 RMK CU1 LAST STFD OBS/NEXT 051300Z SLP153 DENSITY ALT 1200FT

Laikas: 02:41 (09:41 UTC)

Prognozė

Ataskaita buvo paskelbta 14 valandos ir 53 minutes, ne 18:48 UTC
Prognozė galioja nuo 04 metu 19 UTC su 05 metu 01 UTC
Vėjas 5 kt iš Rytų/Šiaurės Rytų
Matomumas: 10 km
Mažai debesys ne aukštis 5000 ft

TAF: CYOC 041848Z 0419/0501 07005KT P6SM FEW050 RMK NXT FCST WILL BE ISSUED AT 051445Z

Orai ataskaitas ir orų prognozės (METAR, TAF).

turimą stotys yra geltonos ir raudonos taškus žemėlapyje.

Perkelti pele per norėdami pamatyti stoties vardą.

Tada spustelėkite, norėdami matyti oro stebėjimo ir prognozės.

Norėdami pakeisti žemėlapį: spustelėkite ant žalios mygtukų su juodo kryžiaus žemyn,; žalią mygtuką su brūkšneliu, jei norite nutolinti; arba žalių rodyklių gretimoms žemėlapius.


METAR-TAF: